createdAt,value
2017-12-09T00:00:29.299Z,5.60
2017-12-09T00:01:08.794Z,6.40
2017-12-09T00:01:47.935Z,5.90
2017-12-09T00:02:23.323Z,6.40
2017-12-09T00:02:58.696Z,6.80
2017-12-09T00:03:34.091Z,6.70
2017-12-09T00:04:09.174Z,6.80
2017-12-09T00:04:45.355Z,6.80
2017-12-09T00:05:20.517Z,6.40
2017-12-09T00:05:55.704Z,5.70
2017-12-09T00:06:30.968Z,6.50
2017-12-09T00:07:06.465Z,6.80
2017-12-09T00:07:41.718Z,6.10
2017-12-09T00:08:17.509Z,6.00
2017-12-09T00:08:52.756Z,6.10
2017-12-09T00:09:27.977Z,5.50
2017-12-09T00:10:03.142Z,5.40
2017-12-09T00:10:39.437Z,6.70
2017-12-09T00:11:14.604Z,6.60
2017-12-09T00:11:49.990Z,6.00
2017-12-09T00:12:25.457Z,6.20
2017-12-09T00:13:00.742Z,6.30
2017-12-09T00:13:36.318Z,5.60
2017-12-09T00:14:11.611Z,6.30
2017-12-09T00:14:46.811Z,6.30
2017-12-09T00:15:22.209Z,6.10
2017-12-09T00:15:57.368Z,6.30
2017-12-09T00:16:32.562Z,6.70
2017-12-09T00:17:07.919Z,7.10
2017-12-09T00:17:43.215Z,5.70
2017-12-09T00:18:18.378Z,5.30
2017-12-09T00:18:53.769Z,5.50
2017-12-09T00:19:29.031Z,5.90
2017-12-09T00:20:04.187Z,6.10
2017-12-09T00:20:39.653Z,6.30
2017-12-09T00:21:14.752Z,5.40
2017-12-09T00:21:50.011Z,5.80
2017-12-09T00:22:25.204Z,6.00
2017-12-09T00:23:00.463Z,6.10
2017-12-09T00:23:35.553Z,5.20
2017-12-09T00:24:10.917Z,5.30
2017-12-09T00:24:46.116Z,5.20
2017-12-09T00:25:24.620Z,5.40
2017-12-09T00:25:59.812Z,5.20
2017-12-09T00:26:34.971Z,5.20
2017-12-09T00:27:10.265Z,5.50
2017-12-09T00:27:47.329Z,5.00
2017-12-09T00:28:22.528Z,4.70
2017-12-09T00:28:57.900Z,4.70
2017-12-09T00:29:35.407Z,5.20
2017-12-09T00:30:13.893Z,5.60
2017-12-09T00:30:49.212Z,5.20
2017-12-09T00:31:24.773Z,5.10
2017-12-09T00:31:59.968Z,5.30
2017-12-09T00:32:35.825Z,4.70
2017-12-09T00:33:11.343Z,4.90
2017-12-09T00:33:46.495Z,4.90
2017-12-09T00:34:21.983Z,5.00
2017-12-09T00:34:57.142Z,4.90
2017-12-09T00:35:32.327Z,4.50
2017-12-09T00:36:07.735Z,4.70
2017-12-09T00:36:43.129Z,4.70
2017-12-09T00:37:18.491Z,5.40
2017-12-09T00:37:53.682Z,5.20
2017-12-09T00:38:28.940Z,4.20
2017-12-09T00:39:04.332Z,3.80
2017-12-09T00:39:40.092Z,3.60
2017-12-09T00:40:15.681Z,3.80
2017-12-09T00:40:51.548Z,4.00
2017-12-09T00:41:26.865Z,4.50
2017-12-09T00:42:02.325Z,4.30
2017-12-09T00:42:37.716Z,3.70
2017-12-09T00:43:12.971Z,3.60
2017-12-09T00:43:48.158Z,3.70
2017-12-09T00:44:24.016Z,4.30
2017-12-09T00:44:59.510Z,3.70
2017-12-09T00:45:38.179Z,4.20
2017-12-09T00:46:13.372Z,4.40
2017-12-09T00:46:52.258Z,4.50
2017-12-09T00:47:27.837Z,4.10
2017-12-09T00:48:03.201Z,4.10
2017-12-09T00:48:38.699Z,4.60
2017-12-09T00:49:13.960Z,4.80
2017-12-09T00:49:50.350Z,4.40
2017-12-09T00:50:25.710Z,3.90
2017-12-09T00:51:00.999Z,3.90
2017-12-09T00:51:36.556Z,3.90
2017-12-09T00:52:13.779Z,4.30
2017-12-09T00:52:49.243Z,4.80
2017-12-09T00:53:24.733Z,4.40
2017-12-09T00:54:00.097Z,4.40
2017-12-09T00:54:35.293Z,4.90
2017-12-09T00:55:10.757Z,4.60
2017-12-09T00:55:46.032Z,4.90
2017-12-09T00:56:21.294Z,4.90
2017-12-09T00:56:56.522Z,4.80
2017-12-09T00:57:32.165Z,5.20
2017-12-09T00:58:07.758Z,5.30
2017-12-09T00:58:43.718Z,5.40
2017-12-09T00:59:19.611Z,4.90
2017-12-09T00:59:54.879Z,4.60
2017-12-09T01:00:30.071Z,5.10
2017-12-09T01:01:07.139Z,5.20
2017-12-09T01:01:42.622Z,5.10
2017-12-09T01:02:17.997Z,5.00
2017-12-09T01:02:53.309Z,5.40
2017-12-09T01:03:31.274Z,5.20
2017-12-09T01:04:06.559Z,5.20
2017-12-09T01:04:41.818Z,5.60
2017-12-09T01:05:17.210Z,6.00
2017-12-09T01:05:52.467Z,6.70
2017-12-09T01:06:27.567Z,6.70
2017-12-09T01:07:03.129Z,6.40
2017-12-09T01:07:38.724Z,6.10
2017-12-09T01:08:14.108Z,6.50
2017-12-09T01:08:49.503Z,6.50
2017-12-09T01:09:25.063Z,6.80
2017-12-09T01:10:00.455Z,6.50
2017-12-09T01:10:35.720Z,6.80
2017-12-09T01:11:10.912Z,6.90
2017-12-09T01:11:48.077Z,6.60
2017-12-09T01:12:23.760Z,6.90
2017-12-09T01:12:59.160Z,7.20
2017-12-09T01:13:35.082Z,7.50
2017-12-09T01:14:10.647Z,7.20
2017-12-09T01:14:46.032Z,7.10
2017-12-09T01:15:21.496Z,6.90
2017-12-09T01:15:56.890Z,7.30
2017-12-09T01:16:32.145Z,7.70
2017-12-09T01:17:07.742Z,7.40
2017-12-09T01:17:43.304Z,7.20
2017-12-09T01:18:18.501Z,7.80
2017-12-09T01:18:54.596Z,8.10
2017-12-09T01:19:29.777Z,8.30
2017-12-09T01:20:05.041Z,7.80
2017-12-09T01:20:42.321Z,8.10
2017-12-09T01:21:17.780Z,7.90
2017-12-09T01:21:53.078Z,8.20
2017-12-09T01:22:28.136Z,8.40
2017-12-09T01:23:03.525Z,7.80
2017-12-09T01:23:38.987Z,8.20
2017-12-09T01:24:14.310Z,8.00
2017-12-09T01:24:49.773Z,8.40
2017-12-09T01:25:25.166Z,8.70
2017-12-09T01:26:02.434Z,8.50
2017-12-09T01:26:38.526Z,8.30
2017-12-09T01:27:13.795Z,8.50
2017-12-09T01:27:49.000Z,9.00
2017-12-09T01:28:24.271Z,9.00
2017-12-09T01:28:59.554Z,9.00
2017-12-09T01:29:35.239Z,8.50
2017-12-09T01:30:10.833Z,8.30
2017-12-09T01:30:48.596Z,8.70
2017-12-09T01:31:24.431Z,8.60
2017-12-09T01:32:01.896Z,8.90
2017-12-09T01:32:37.186Z,9.00
2017-12-09T01:33:12.540Z,9.30
2017-12-09T01:33:48.035Z,10.30
2017-12-09T01:34:23.293Z,9.60
2017-12-09T01:34:58.716Z,8.70
2017-12-09T01:35:33.980Z,8.80
2017-12-09T01:36:09.506Z,9.50
2017-12-09T01:36:44.774Z,9.40
2017-12-09T01:37:20.372Z,8.90
2017-12-09T01:37:56.136Z,9.60
2017-12-09T01:38:31.729Z,9.70
2017-12-09T01:39:07.110Z,8.90
2017-12-09T01:39:42.617Z,9.30
2017-12-09T01:40:17.916Z,8.90
2017-12-09T01:40:53.717Z,9.10
2017-12-09T01:41:28.872Z,9.90
2017-12-09T01:42:04.161Z,9.30
2017-12-09T01:42:39.827Z,9.00
2017-12-09T01:43:15.314Z,9.10
2017-12-09T01:43:50.492Z,9.00
2017-12-09T01:44:27.183Z,9.80
2017-12-09T01:45:04.852Z,10.40
2017-12-09T01:45:40.145Z,10.00
2017-12-09T01:46:15.618Z,9.60
2017-12-09T01:46:51.118Z,9.20
2017-12-09T01:47:26.391Z,9.60
2017-12-09T01:48:01.579Z,10.00
2017-12-09T01:48:37.047Z,9.10
2017-12-09T01:49:12.441Z,9.00
2017-12-09T01:49:47.901Z,9.00
2017-12-09T01:50:23.198Z,8.50
2017-12-09T01:50:58.592Z,8.80
2017-12-09T01:51:33.981Z,9.10
2017-12-09T01:52:09.247Z,9.20
2017-12-09T01:52:44.739Z,8.90
2017-12-09T01:53:22.899Z,9.80
2017-12-09T01:53:58.299Z,9.30
2017-12-09T01:54:33.558Z,8.00
2017-12-09T01:55:08.853Z,7.70
2017-12-09T01:55:44.039Z,8.10
2017-12-09T01:56:19.360Z,7.60
2017-12-09T01:56:54.622Z,7.60
2017-12-09T01:57:29.921Z,8.20
2017-12-09T01:58:05.279Z,8.50
2017-12-09T01:58:40.676Z,8.50
2017-12-09T01:59:16.142Z,8.20
2017-12-09T01:59:51.535Z,7.60
2017-12-09T02:00:26.499Z,7.30
2017-12-09T02:01:05.208Z,8.10
2017-12-09T02:01:41.390Z,8.10
2017-12-09T02:02:16.681Z,7.70
2017-12-09T02:02:51.944Z,7.50
2017-12-09T02:03:27.531Z,7.80
2017-12-09T02:04:03.803Z,8.00
2017-12-09T02:04:39.107Z,7.90
2017-12-09T02:05:14.364Z,7.60
2017-12-09T02:05:49.591Z,7.70
2017-12-09T02:06:24.858Z,9.20
2017-12-09T02:07:00.291Z,9.50
2017-12-09T02:07:35.457Z,7.80
2017-12-09T02:08:10.557Z,8.10
2017-12-09T02:08:45.825Z,8.80
2017-12-09T02:09:21.212Z,8.80
2017-12-09T02:09:56.578Z,8.40
2017-12-09T02:10:32.371Z,8.40
2017-12-09T02:11:07.632Z,8.30
2017-12-09T02:11:43.035Z,8.30
2017-12-09T02:12:18.327Z,8.40
2017-12-09T02:12:53.777Z,8.80
2017-12-09T02:13:30.393Z,8.90
2017-12-09T02:14:05.888Z,8.90
2017-12-09T02:14:41.152Z,9.90
2017-12-09T02:15:16.448Z,9.20
2017-12-09T02:15:51.817Z,8.60
2017-12-09T02:16:27.326Z,8.30
2017-12-09T02:17:02.502Z,8.20
2017-12-09T02:17:37.731Z,8.00
2017-12-09T02:18:12.823Z,9.10
2017-12-09T02:18:47.917Z,9.20
2017-12-09T02:19:22.984Z,8.90
2017-12-09T02:19:58.183Z,8.60
2017-12-09T02:20:33.167Z,8.10
2017-12-09T02:21:08.380Z,9.00
2017-12-09T02:21:43.946Z,9.10
2017-12-09T02:22:19.544Z,8.70
2017-12-09T02:22:54.837Z,8.30
2017-12-09T02:23:30.239Z,8.50
2017-12-09T02:24:05.415Z,8.60
2017-12-09T02:24:41.519Z,8.40
2017-12-09T02:25:16.902Z,8.20
2017-12-09T02:25:56.603Z,7.70
2017-12-09T02:26:33.380Z,7.90
2017-12-09T02:27:08.681Z,8.60
2017-12-09T02:27:43.854Z,9.70
2017-12-09T02:28:19.083Z,9.40
2017-12-09T02:28:54.550Z,9.30
2017-12-09T02:29:30.461Z,8.80
2017-12-09T02:30:05.926Z,8.30
2017-12-09T02:30:43.730Z,8.90
2017-12-09T02:31:18.898Z,9.50
2017-12-09T02:31:54.296Z,8.90
2017-12-09T02:32:29.557Z,8.80
2017-12-09T02:33:04.969Z,9.10
2017-12-09T02:33:44.170Z,9.40
2017-12-09T02:34:19.467Z,9.00
2017-12-09T02:34:54.746Z,9.30
2017-12-09T02:35:30.345Z,8.10
2017-12-09T02:36:05.714Z,7.70
2017-12-09T02:36:41.516Z,8.10
2017-12-09T02:37:16.989Z,9.20
2017-12-09T02:37:52.493Z,9.20
2017-12-09T02:38:27.565Z,8.80
2017-12-09T02:39:02.797Z,8.80
2017-12-09T02:39:38.065Z,8.30
2017-12-09T02:40:13.361Z,8.00
2017-12-09T02:40:48.630Z,8.10
2017-12-09T02:41:23.937Z,8.40
2017-12-09T02:41:59.440Z,7.60
2017-12-09T02:42:35.330Z,7.50
2017-12-09T02:43:11.399Z,7.80
2017-12-09T02:43:46.796Z,8.40
2017-12-09T02:44:21.900Z,7.90
2017-12-09T02:44:57.710Z,7.50
2017-12-09T02:45:36.195Z,7.90
2017-12-09T02:46:15.006Z,7.70
2017-12-09T02:46:50.373Z,7.20
2017-12-09T02:47:25.575Z,7.70
2017-12-09T02:48:00.856Z,7.90
2017-12-09T02:48:36.165Z,7.50
2017-12-09T02:49:11.647Z,7.80
2017-12-09T02:49:46.990Z,7.10
2017-12-09T02:50:22.462Z,6.70
2017-12-09T02:50:58.065Z,6.50
2017-12-09T02:51:33.753Z,7.10
2017-12-09T02:52:09.255Z,6.50
2017-12-09T02:52:44.534Z,6.80
2017-12-09T02:53:19.735Z,7.30
2017-12-09T02:53:55.208Z,7.20
2017-12-09T02:54:30.415Z,6.20
2017-12-09T02:55:05.715Z,6.20
2017-12-09T02:55:41.029Z,6.60
2017-12-09T02:56:16.202Z,6.90
2017-12-09T02:56:51.615Z,7.80
2017-12-09T02:57:27.185Z,6.90
2017-12-09T02:58:02.389Z,6.70
2017-12-09T02:58:37.963Z,5.80
2017-12-09T02:59:13.671Z,6.20
2017-12-09T02:59:48.956Z,6.80
2017-12-09T03:00:24.595Z,6.20
2017-12-09T03:00:59.865Z,5.70
2017-12-09T03:01:35.177Z,6.00
2017-12-09T03:02:10.293Z,6.30
2017-12-09T03:02:45.384Z,6.50
2017-12-09T03:03:20.557Z,5.80
2017-12-09T03:03:55.861Z,6.00
2017-12-09T03:04:30.836Z,6.40
2017-12-09T03:05:06.244Z,6.00
2017-12-09T03:05:41.562Z,6.10
2017-12-09T03:06:16.865Z,6.00
2017-12-09T03:06:52.573Z,5.20
2017-12-09T03:07:28.472Z,6.50
2017-12-09T03:08:03.748Z,7.20
2017-12-09T03:08:39.246Z,6.20
2017-12-09T03:09:14.426Z,5.40
2017-12-09T03:09:49.840Z,5.40
2017-12-09T03:10:25.225Z,5.60
2017-12-09T03:11:00.756Z,5.80
2017-12-09T03:11:36.141Z,5.80
2017-12-09T03:12:11.249Z,5.70
2017-12-09T03:12:46.566Z,5.70
2017-12-09T03:13:21.820Z,5.10
2017-12-09T03:13:57.392Z,5.00
2017-12-09T03:14:33.001Z,5.40
2017-12-09T03:15:08.070Z,5.60
2017-12-09T03:15:43.167Z,5.70
2017-12-09T03:16:18.879Z,6.10
2017-12-09T03:16:54.080Z,6.70
2017-12-09T03:17:29.251Z,6.20
2017-12-09T03:18:04.757Z,5.10
2017-12-09T03:18:40.334Z,5.10
2017-12-09T03:19:16.053Z,5.20
2017-12-09T03:19:51.122Z,5.00
2017-12-09T03:20:26.432Z,4.70
2017-12-09T03:21:01.807Z,4.90
2017-12-09T03:21:37.342Z,4.90
2017-12-09T03:22:12.537Z,5.60
2017-12-09T03:22:48.034Z,5.80
2017-12-09T03:23:23.313Z,6.10
2017-12-09T03:23:58.614Z,5.30
2017-12-09T03:24:33.788Z,4.80
2017-12-09T03:25:09.097Z,5.10
2017-12-09T03:25:44.571Z,5.50
2017-12-09T03:26:20.376Z,5.40
2017-12-09T03:26:55.978Z,4.80
2017-12-09T03:27:31.284Z,5.10
2017-12-09T03:28:06.761Z,5.00
2017-12-09T03:28:41.960Z,5.70
2017-12-09T03:29:17.123Z,5.70
2017-12-09T03:29:52.731Z,5.90
2017-12-09T03:30:27.808Z,6.60
2017-12-09T03:31:02.906Z,5.40
2017-12-09T03:31:38.279Z,5.50
2017-12-09T03:32:13.608Z,5.30
2017-12-09T03:32:49.083Z,5.40
2017-12-09T03:33:24.395Z,5.50
2017-12-09T03:33:59.972Z,5.40
2017-12-09T03:34:35.076Z,5.60
2017-12-09T03:35:10.350Z,5.30
2017-12-09T03:35:45.780Z,5.90
2017-12-09T03:36:21.260Z,5.90
2017-12-09T03:36:56.558Z,6.20
2017-12-09T03:37:31.962Z,6.70
2017-12-09T03:38:07.275Z,6.60
2017-12-09T03:38:42.449Z,6.20
2017-12-09T03:39:17.748Z,7.00
2017-12-09T03:39:53.332Z,7.20
2017-12-09T03:40:28.833Z,6.50
2017-12-09T03:41:04.208Z,6.20
2017-12-09T03:41:39.505Z,7.00
2017-12-09T03:42:14.679Z,6.20
2017-12-09T03:42:50.317Z,6.90
2017-12-09T03:43:25.494Z,7.20
2017-12-09T03:44:00.799Z,7.40
2017-12-09T03:44:35.869Z,6.20
2017-12-09T03:45:11.577Z,6.50
2017-12-09T03:45:46.850Z,7.00
2017-12-09T03:46:22.054Z,7.20
2017-12-09T03:46:57.425Z,7.60
2017-12-09T03:47:32.929Z,8.10
2017-12-09T03:48:08.136Z,7.40
2017-12-09T03:48:43.355Z,8.70
2017-12-09T03:49:18.726Z,8.40
2017-12-09T03:49:54.224Z,7.80
2017-12-09T03:50:29.601Z,7.90
2017-12-09T03:51:04.698Z,8.40
2017-12-09T03:51:40.484Z,8.40
2017-12-09T03:52:15.994Z,8.40
2017-12-09T03:52:51.865Z,8.90
2017-12-09T03:53:27.196Z,9.50
2017-12-09T03:54:02.362Z,9.20
2017-12-09T03:54:38.061Z,8.70
2017-12-09T03:55:13.329Z,8.70
2017-12-09T03:55:48.427Z,9.40
2017-12-09T03:56:23.403Z,9.00
2017-12-09T03:56:58.999Z,9.20
2017-12-09T03:57:34.269Z,9.50
2017-12-09T03:58:09.863Z,9.50
2017-12-09T03:58:45.675Z,9.80
2017-12-09T03:59:21.395Z,10.00
2017-12-09T03:59:56.565Z,10.10
2017-12-09T04:00:31.872Z,9.50
2017-12-09T04:01:07.237Z,9.60
2017-12-09T04:01:42.839Z,10.30
2017-12-09T04:02:18.506Z,10.10
2017-12-09T04:02:53.912Z,10.60
2017-12-09T04:03:29.176Z,10.60
2017-12-09T04:04:04.725Z,10.90
2017-12-09T04:04:40.303Z,10.90
2017-12-09T04:05:15.604Z,10.40
2017-12-09T04:05:50.777Z,10.30
2017-12-09T04:06:26.075Z,10.80
2017-12-09T04:07:01.251Z,10.90
2017-12-09T04:07:36.547Z,11.90
2017-12-09T04:08:11.820Z,11.70
2017-12-09T04:08:47.029Z,11.60
2017-12-09T04:09:22.028Z,10.80
2017-12-09T04:09:57.526Z,10.20
2017-12-09T04:10:32.791Z,10.80
2017-12-09T04:11:07.992Z,11.60
2017-12-09T04:11:43.266Z,11.80
2017-12-09T04:12:18.667Z,11.80
2017-12-09T04:12:54.143Z,12.20
2017-12-09T04:13:29.543Z,11.80
2017-12-09T04:14:04.618Z,11.40
2017-12-09T04:14:40.351Z,11.30
2017-12-09T04:15:15.824Z,10.90
2017-12-09T04:15:51.132Z,10.60
2017-12-09T04:16:26.600Z,10.50
2017-12-09T04:17:01.805Z,11.00
2017-12-09T04:17:37.075Z,10.70
2017-12-09T04:18:12.374Z,11.50
2017-12-09T04:18:47.845Z,11.90
2017-12-09T04:19:23.251Z,11.60
2017-12-09T04:19:58.657Z,11.40
2017-12-09T04:20:33.767Z,11.20
2017-12-09T04:21:09.151Z,11.30
2017-12-09T04:21:44.851Z,11.50
2017-12-09T04:22:19.923Z,11.20
2017-12-09T04:22:55.225Z,10.40
2017-12-09T04:23:30.603Z,10.50
2017-12-09T04:24:06.002Z,11.20
2017-12-09T04:24:44.178Z,10.70
2017-12-09T04:25:19.414Z,11.00
2017-12-09T04:25:54.690Z,10.80
2017-12-09T04:26:29.791Z,10.50
2017-12-09T04:27:05.065Z,11.00
2017-12-09T04:27:40.166Z,11.20
2017-12-09T04:28:15.646Z,11.40
2017-12-09T04:28:51.248Z,11.00
2017-12-09T04:29:26.622Z,10.60
2017-12-09T04:30:01.918Z,10.20
2017-12-09T04:30:37.333Z,9.80
2017-12-09T04:31:12.429Z,9.30
2017-12-09T04:31:47.504Z,10.00
2017-12-09T04:32:22.805Z,9.70
2017-12-09T04:32:58.178Z,9.70
2017-12-09T04:33:33.689Z,10.50
2017-12-09T04:34:09.157Z,10.90
2017-12-09T04:34:44.465Z,11.20
2017-12-09T04:35:19.628Z,10.20
2017-12-09T04:35:54.960Z,9.80
2017-12-09T04:36:30.140Z,10.20
2017-12-09T04:37:05.829Z,11.00
2017-12-09T04:37:41.411Z,10.30
2017-12-09T04:38:16.613Z,10.00
2017-12-09T04:38:51.693Z,10.00
2017-12-09T04:39:26.887Z,9.80
2017-12-09T04:40:01.956Z,9.40
2017-12-09T04:40:37.467Z,10.20
2017-12-09T04:41:12.665Z,9.80
2017-12-09T04:41:47.772Z,9.80
2017-12-09T04:42:22.940Z,9.70
2017-12-09T04:42:58.542Z,9.10
2017-12-09T04:43:33.810Z,8.80
2017-12-09T04:44:09.112Z,8.40
2017-12-09T04:44:44.384Z,9.00
2017-12-09T04:45:19.686Z,8.90
2017-12-09T04:45:55.373Z,9.10
2017-12-09T04:46:30.510Z,9.40
2017-12-09T04:47:05.885Z,8.70
2017-12-09T04:47:41.088Z,8.40
2017-12-09T04:48:16.568Z,8.50
2017-12-09T04:48:51.774Z,8.00
2017-12-09T04:49:27.252Z,7.70
2017-12-09T04:50:02.657Z,8.60
2017-12-09T04:50:37.951Z,8.70
2017-12-09T04:51:13.243Z,8.10
2017-12-09T04:51:48.350Z,7.90
2017-12-09T04:52:23.556Z,7.60
2017-12-09T04:52:58.928Z,7.00
2017-12-09T04:53:34.336Z,8.30
2017-12-09T04:54:09.716Z,8.60
2017-12-09T04:54:45.117Z,7.60
2017-12-09T04:55:20.495Z,7.30
2017-12-09T04:55:55.893Z,7.80
2017-12-09T04:56:31.369Z,7.60
2017-12-09T04:57:06.607Z,7.60
2017-12-09T04:57:41.878Z,7.70
2017-12-09T04:58:17.289Z,7.60
2017-12-09T04:58:52.463Z,7.60
2017-12-09T04:59:27.571Z,7.00
2017-12-09T05:00:03.050Z,7.30
2017-12-09T05:00:38.957Z,7.00
2017-12-09T05:01:14.130Z,6.90
2017-12-09T05:01:49.336Z,7.00
2017-12-09T05:02:24.650Z,6.90
2017-12-09T05:03:00.148Z,7.10
2017-12-09T05:03:35.330Z,7.00
2017-12-09T05:04:10.638Z,7.10
2017-12-09T05:04:45.819Z,6.70
2017-12-09T05:05:21.020Z,7.10
2017-12-09T05:05:56.301Z,7.80
2017-12-09T05:06:31.608Z,6.90
2017-12-09T05:07:06.888Z,7.00
2017-12-09T05:07:42.124Z,7.80
2017-12-09T05:08:17.392Z,7.50
2017-12-09T05:08:52.803Z,6.60
2017-12-09T05:09:28.188Z,7.10
2017-12-09T05:10:03.393Z,6.90
2017-12-09T05:10:38.677Z,6.80
2017-12-09T05:11:13.982Z,6.90
2017-12-09T05:11:49.259Z,7.20
2017-12-09T05:12:24.260Z,7.00
2017-12-09T05:12:59.772Z,6.90
2017-12-09T05:13:35.177Z,6.70
2017-12-09T05:14:10.348Z,6.40
2017-12-09T05:14:45.967Z,6.90
2017-12-09T05:15:21.034Z,6.70
2017-12-09T05:15:56.439Z,6.70
2017-12-09T05:16:31.613Z,6.90
2017-12-09T05:17:06.921Z,6.40
2017-12-09T05:17:42.325Z,6.50
2017-12-09T05:18:17.831Z,6.20
2017-12-09T05:18:53.108Z,5.80
2017-12-09T05:19:28.414Z,5.80
2017-12-09T05:20:03.888Z,6.10
2017-12-09T05:20:39.193Z,6.90
2017-12-09T05:21:14.263Z,7.00
2017-12-09T05:21:49.568Z,5.80
2017-12-09T05:22:24.943Z,5.80
2017-12-09T05:22:59.988Z,6.60
2017-12-09T05:23:35.054Z,5.90
2017-12-09T05:24:10.258Z,5.60
2017-12-09T05:24:45.333Z,5.90
2017-12-09T05:25:20.641Z,6.10
2017-12-09T05:25:55.724Z,5.70
2017-12-09T05:26:31.025Z,5.90
2017-12-09T05:27:06.417Z,6.00
2017-12-09T05:27:41.663Z,6.40
2017-12-09T05:28:16.845Z,6.60
2017-12-09T05:28:52.144Z,6.30
2017-12-09T05:29:27.531Z,6.30
2017-12-09T05:30:02.647Z,5.60
2017-12-09T05:30:38.025Z,5.90
2017-12-09T05:31:13.035Z,6.40
2017-12-09T05:31:48.118Z,6.50
2017-12-09T05:32:23.816Z,5.90
2017-12-09T05:32:59.115Z,5.50
2017-12-09T05:33:34.773Z,5.50
2017-12-09T05:34:09.951Z,5.90
2017-12-09T05:34:45.271Z,5.70
2017-12-09T05:35:20.956Z,5.40
2017-12-09T05:35:56.364Z,5.20
2017-12-09T05:36:31.544Z,5.50
2017-12-09T05:37:06.742Z,5.50
2017-12-09T05:37:41.920Z,5.30
2017-12-09T05:38:17.452Z,5.70
2017-12-09T05:38:53.026Z,6.00
2017-12-09T05:39:28.537Z,5.60
2017-12-09T05:40:03.813Z,5.60
2017-12-09T05:40:38.919Z,5.60
2017-12-09T05:41:14.493Z,6.30
2017-12-09T05:41:50.002Z,5.90
2017-12-09T05:42:25.276Z,5.60
2017-12-09T05:43:00.706Z,6.50
2017-12-09T05:43:36.097Z,6.80
2017-12-09T05:44:11.394Z,6.70
2017-12-09T05:44:46.490Z,6.20
2017-12-09T05:45:21.685Z,5.20
2017-12-09T05:45:57.060Z,5.30
2017-12-09T05:46:32.161Z,5.70
2017-12-09T05:47:07.525Z,5.30
2017-12-09T05:47:43.638Z,5.70
2017-12-09T05:48:19.140Z,6.20
2017-12-09T05:48:54.351Z,5.20
2017-12-09T05:49:29.524Z,4.80
2017-12-09T05:50:05.127Z,5.50
2017-12-09T05:50:40.495Z,5.70
2017-12-09T05:51:15.897Z,6.20
2017-12-09T05:51:51.178Z,6.80
2017-12-09T05:52:26.479Z,6.60
2017-12-09T05:53:01.881Z,5.80
2017-12-09T05:53:43.505Z,6.40
2017-12-09T05:54:18.682Z,6.30
2017-12-09T05:54:53.908Z,5.60
2017-12-09T05:55:29.087Z,6.70
2017-12-09T05:56:04.297Z,7.40
2017-12-09T05:56:39.570Z,7.20
2017-12-09T05:57:14.780Z,6.80
2017-12-09T05:57:50.244Z,6.50
2017-12-09T05:58:25.470Z,6.60
2017-12-09T05:59:00.747Z,6.60
2017-12-09T05:59:36.046Z,6.20
2017-12-09T06:00:11.525Z,6.00
2017-12-09T06:00:47.028Z,5.80
2017-12-09T06:01:22.415Z,6.20
2017-12-09T06:01:59.217Z,6.00
2017-12-09T06:02:34.301Z,6.70
2017-12-09T06:03:09.548Z,7.20
2017-12-09T06:03:45.609Z,7.00
2017-12-09T06:04:20.908Z,6.70
2017-12-09T06:04:59.285Z,6.80
2017-12-09T06:05:34.696Z,6.90
2017-12-09T06:06:09.665Z,7.70
2017-12-09T06:06:44.979Z,8.10
2017-12-09T06:07:20.547Z,6.70
2017-12-09T06:07:56.155Z,6.80
2017-12-09T06:08:31.556Z,7.20
2017-12-09T06:09:06.754Z,6.80
2017-12-09T06:09:41.932Z,8.10
2017-12-09T06:10:17.225Z,8.10
2017-12-09T06:10:52.702Z,7.60
2017-12-09T06:11:28.209Z,8.30
2017-12-09T06:12:03.381Z,8.60
2017-12-09T06:12:38.687Z,7.90
2017-12-09T06:13:13.904Z,7.80
2017-12-09T06:13:49.408Z,8.50
2017-12-09T06:14:24.778Z,8.70
2017-12-09T06:15:00.178Z,8.60
2017-12-09T06:15:35.355Z,8.70
2017-12-09T06:16:10.563Z,9.40
2017-12-09T06:16:46.336Z,8.30
2017-12-09T06:17:21.938Z,8.90
2017-12-09T06:17:57.419Z,9.20
2017-12-09T06:18:33.040Z,8.90
2017-12-09T06:19:08.308Z,8.40
2017-12-09T06:19:43.418Z,8.90
2017-12-09T06:20:19.002Z,8.80
2017-12-09T06:20:56.404Z,9.40
2017-12-09T06:21:31.574Z,10.20
2017-12-09T06:22:07.281Z,9.50
2017-12-09T06:22:42.748Z,9.40
2017-12-09T06:23:18.081Z,8.60
2017-12-09T06:23:53.557Z,9.30
2017-12-09T06:24:29.259Z,9.70
2017-12-09T06:25:04.650Z,9.60
2017-12-09T06:25:40.871Z,9.50
2017-12-09T06:26:16.241Z,9.20
2017-12-09T06:26:51.340Z,9.60
2017-12-09T06:27:26.617Z,9.50
2017-12-09T06:28:01.920Z,9.90
2017-12-09T06:28:37.119Z,10.30
2017-12-09T06:29:12.818Z,10.00
2017-12-09T06:29:47.796Z,10.60
2017-12-09T06:30:23.200Z,10.70
2017-12-09T06:30:58.467Z,10.20
2017-12-09T06:31:33.871Z,10.60
2017-12-09T06:32:09.445Z,10.30
2017-12-09T06:32:45.050Z,10.60
2017-12-09T06:33:20.324Z,11.10
2017-12-09T06:33:55.751Z,10.90
2017-12-09T06:34:31.220Z,12.50
2017-12-09T06:35:06.616Z,11.80
2017-12-09T06:35:41.791Z,11.40
2017-12-09T06:36:17.196Z,10.80
2017-12-09T06:36:52.366Z,12.00
2017-12-09T06:37:27.985Z,12.50
2017-12-09T06:38:03.345Z,12.40
2017-12-09T06:38:38.772Z,12.50
2017-12-09T06:39:13.946Z,12.10
2017-12-09T06:39:49.046Z,12.40
2017-12-09T06:40:24.317Z,12.40
2017-12-09T06:40:59.619Z,12.90
2017-12-09T06:41:35.036Z,12.10
2017-12-09T06:42:10.535Z,12.40
2017-12-09T06:42:47.119Z,12.20
2017-12-09T06:43:22.625Z,13.30
2017-12-09T06:43:58.026Z,13.80
2017-12-09T06:44:33.733Z,12.40
2017-12-09T06:45:09.201Z,11.90
2017-12-09T06:45:44.508Z,11.60
2017-12-09T06:46:20.084Z,12.10
2017-12-09T06:46:55.894Z,12.90
2017-12-09T06:47:35.351Z,11.90
2017-12-09T06:48:10.952Z,12.30
2017-12-09T06:48:46.243Z,12.10
2017-12-09T06:49:21.542Z,11.90
2017-12-09T06:49:56.518Z,12.20
2017-12-09T06:50:32.134Z,11.90
2017-12-09T06:51:07.414Z,13.40
2017-12-09T06:51:42.511Z,12.90
2017-12-09T06:52:17.882Z,12.90
2017-12-09T06:52:53.083Z,12.30
2017-12-09T06:53:29.008Z,11.90
2017-12-09T06:54:04.341Z,12.40
2017-12-09T06:54:39.906Z,13.30
2017-12-09T06:55:15.306Z,13.10
2017-12-09T06:55:51.176Z,12.30
2017-12-09T06:56:26.279Z,12.10
2017-12-09T06:57:01.656Z,11.90
2017-12-09T06:57:36.854Z,12.00
2017-12-09T06:58:12.128Z,12.40
2017-12-09T06:58:47.476Z,13.10
2017-12-09T06:59:22.655Z,13.20
2017-12-09T06:59:57.861Z,13.10
2017-12-09T07:00:33.333Z,12.40
2017-12-09T07:01:08.542Z,12.50
2017-12-09T07:01:44.111Z,12.70
2017-12-09T07:02:19.613Z,13.50
2017-12-09T07:02:54.585Z,13.50
2017-12-09T07:03:29.792Z,12.80
2017-12-09T07:04:05.074Z,12.50
2017-12-09T07:04:40.379Z,12.20
2017-12-09T07:05:15.553Z,12.00
2017-12-09T07:05:50.960Z,12.20
2017-12-09T07:06:26.332Z,12.10
2017-12-09T07:07:01.993Z,12.40
2017-12-09T07:07:37.469Z,12.80
2017-12-09T07:08:12.966Z,12.90
2017-12-09T07:08:48.145Z,12.70
2017-12-09T07:09:23.683Z,13.20
2017-12-09T07:09:59.145Z,13.20
2017-12-09T07:10:34.357Z,12.70
2017-12-09T07:11:10.723Z,14.00
2017-12-09T07:11:46.238Z,13.70
2017-12-09T07:12:21.511Z,13.20
2017-12-09T07:12:56.722Z,13.10
2017-12-09T07:13:31.989Z,12.50
2017-12-09T07:14:07.120Z,13.50
2017-12-09T07:14:42.390Z,13.50
2017-12-09T07:15:17.887Z,13.00
2017-12-09T07:15:53.467Z,13.10
2017-12-09T07:16:28.868Z,13.70
2017-12-09T07:17:04.146Z,13.40
2017-12-09T07:17:39.548Z,13.40
2017-12-09T07:18:14.719Z,14.60
2017-12-09T07:18:50.021Z,14.00
2017-12-09T07:19:25.513Z,13.20
2017-12-09T07:20:01.039Z,13.20
2017-12-09T07:20:36.710Z,14.10
2017-12-09T07:21:12.009Z,13.30
2017-12-09T07:21:47.384Z,13.00
2017-12-09T07:22:22.580Z,13.90
2017-12-09T07:22:57.906Z,13.40
2017-12-09T07:23:36.375Z,12.90
2017-12-09T07:24:11.883Z,12.80
2017-12-09T07:24:47.087Z,13.40
2017-12-09T07:25:22.364Z,14.10
2017-12-09T07:25:57.786Z,13.70
2017-12-09T07:26:33.252Z,13.60
2017-12-09T07:27:08.460Z,13.40
2017-12-09T07:27:43.646Z,14.30
2017-12-09T07:28:18.958Z,13.40
2017-12-09T07:28:54.229Z,13.60
2017-12-09T07:29:29.357Z,14.20
2017-12-09T07:30:05.242Z,14.60
2017-12-09T07:30:41.303Z,14.40
2017-12-09T07:31:16.334Z,13.90
2017-12-09T07:31:51.741Z,13.60
2017-12-09T07:32:27.018Z,13.30
2017-12-09T07:33:02.224Z,13.90
2017-12-09T07:33:40.702Z,14.00
2017-12-09T07:34:16.133Z,13.40
2017-12-09T07:34:51.407Z,13.30
2017-12-09T07:35:26.913Z,14.00
2017-12-09T07:36:02.384Z,13.50
2017-12-09T07:36:37.595Z,13.30
2017-12-09T07:37:13.164Z,13.60
2017-12-09T07:37:48.567Z,13.70
2017-12-09T07:38:23.640Z,13.80
2017-12-09T07:38:59.361Z,13.90
2017-12-09T07:39:34.675Z,13.80
2017-12-09T07:40:09.971Z,14.00
2017-12-09T07:40:45.447Z,13.20
2017-12-09T07:41:20.959Z,14.60
2017-12-09T07:41:56.046Z,16.20
2017-12-09T07:42:31.347Z,14.00
2017-12-09T07:43:10.368Z,13.40
2017-12-09T07:43:45.563Z,13.80
2017-12-09T07:44:21.261Z,14.70
2017-12-09T07:44:56.576Z,13.80
2017-12-09T07:45:32.440Z,13.40
2017-12-09T07:46:09.350Z,14.00
2017-12-09T07:46:44.730Z,14.10
2017-12-09T07:47:20.041Z,13.60
2017-12-09T07:47:55.323Z,13.80
2017-12-09T07:48:30.923Z,14.10